sensor_id;sensor_type;location;lat;lon;timestamp;temperature;humidity
7378;DHT22;3730;50.856;12.776;2023-03-01T00:02:02;-0.30;92.60
7378;DHT22;3730;50.856;12.776;2023-03-01T00:04:28;-0.20;92.90
7378;DHT22;3730;50.856;12.776;2023-03-01T00:06:54;-0.30;93.10
7378;DHT22;3730;50.856;12.776;2023-03-01T00:09:19;-0.20;92.80
7378;DHT22;3730;50.856;12.776;2023-03-01T00:11:45;-0.30;92.80
7378;DHT22;3730;50.856;12.776;2023-03-01T00:14:12;-0.40;92.60
7378;DHT22;3730;50.856;12.776;2023-03-01T00:16:40;-0.40;92.80
7378;DHT22;3730;50.856;12.776;2023-03-01T00:19:07;-0.50;93.50
7378;DHT22;3730;50.856;12.776;2023-03-01T00:24:01;-0.60;94.40
7378;DHT22;3730;50.856;12.776;2023-03-01T00:26:27;-0.70;97.00
7378;DHT22;3730;50.856;12.776;2023-03-01T00:28:53;-0.60;97.20
7378;DHT22;3730;50.856;12.776;2023-03-01T00:31:23;-0.70;97.30
7378;DHT22;3730;50.856;12.776;2023-03-01T00:33:52;-0.60;97.40
7378;DHT22;3730;50.856;12.776;2023-03-01T00:36:22;-0.40;99.90
7378;DHT22;3730;50.856;12.776;2023-03-01T00:38:48;-0.60;97.00
7378;DHT22;3730;50.856;12.776;2023-03-01T00:41:16;-0.50;97.00
7378;DHT22;3730;50.856;12.776;2023-03-01T00:43:42;0.70;97.40
7378;DHT22;3730;50.856;12.776;2023-03-01T00:46:13;-0.50;96.60
7378;DHT22;3730;50.856;12.776;2023-03-01T00:48:39;-0.50;95.90
7378;DHT22;3730;50.856;12.776;2023-03-01T00:51:26;-0.60;95.70
7378;DHT22;3730;50.856;12.776;2023-03-01T00:53:53;-0.60;96.50
7378;DHT22;3730;50.856;12.776;2023-03-01T00:56:19;-0.70;96.70
7378;DHT22;3730;50.856;12.776;2023-03-01T00:58:45;-0.70;96.90
7378;DHT22;3730;50.856;12.776;2023-03-01T01:01:17;-0.70;97.20
7378;DHT22;3730;50.856;12.776;2023-03-01T01:03:51;-0.70;97.20
7378;DHT22;3730;50.856;12.776;2023-03-01T01:06:22;-0.70;97.30
7378;DHT22;3730;50.856;12.776;2023-03-01T01:08:49;-0.70;97.20
7378;DHT22;3730;50.856;12.776;2023-03-01T01:11:15;-0.70;96.90
7378;DHT22;3730;50.856;12.776;2023-03-01T01:13:43;-0.70;97.10
7378;DHT22;3730;50.856;12.776;2023-03-01T01:16:09;-0.80;97.00
7378;DHT22;3730;50.856;12.776;2023-03-01T01:18:34;-0.70;97.00
7378;DHT22;3730;50.856;12.776;2023-03-01T01:21:05;-0.70;96.80
7378;DHT22;3730;50.856;12.776;2023-03-01T01:23:32;-0.70;97.00
7378;DHT22;3730;50.856;12.776;2023-03-01T01:26:02;-0.70;96.70
7378;DHT22;3730;50.856;12.776;2023-03-01T01:28:28;-0.70;96.70
7378;DHT22;3730;50.856;12.776;2023-03-01T01:30:54;-0.70;96.80
7378;DHT22;3730;50.856;12.776;2023-03-01T01:33:19;-0.70;96.60
7378;DHT22;3730;50.856;12.776;2023-03-01T01:35:45;-0.70;99.90
7378;DHT22;3730;50.856;12.776;2023-03-01T01:38:11;-0.80;96.80
7378;DHT22;3730;50.856;12.776;2023-03-01T01:40:43;-0.70;96.90
7378;DHT22;3730;50.856;12.776;2023-03-01T01:43:20;-0.70;97.30
7378;DHT22;3730;50.856;12.776;2023-03-01T01:45:47;-0.50;96.60
7378;DHT22;3730;50.856;12.776;2023-03-01T01:48:18;-0.60;96.30
7378;DHT22;3730;50.856;12.776;2023-03-01T01:50:50;-0.70;96.10
7378;DHT22;3730;50.856;12.776;2023-03-01T01:53:18;-0.70;96.60
7378;DHT22;3730;50.856;12.776;2023-03-01T01:55:55;-0.80;96.40
7378;DHT22;3730;50.856;12.776;2023-03-01T01:58:24;-0.90;96.50
7378;DHT22;3730;50.856;12.776;2023-03-01T02:00:51;-0.90;96.20
7378;DHT22;3730;50.856;12.776;2023-03-01T02:03:37;-0.90;96.40
7378;DHT22;3730;50.856;12.776;2023-03-01T02:06:22;-0.90;96.10
7378;DHT22;3730;50.856;12.776;2023-03-01T02:08:57;-0.90;96.10
7378;DHT22;3730;50.856;12.776;2023-03-01T02:11:24;-1.00;96.70
7378;DHT22;3730;50.856;12.776;2023-03-01T02:16:17;-1.00;96.50
7378;DHT22;3730;50.856;12.776;2023-03-01T02:18:43;-1.10;97.20
7378;DHT22;3730;50.856;12.776;2023-03-01T02:41:25;-1.10;99.90
7378;DHT22;3730;50.856;12.776;2023-03-01T02:43:51;-1.20;97.70
7378;DHT22;3730;50.856;12.776;2023-03-01T02:46:21;-1.20;97.80
7378;DHT22;3730;50.856;12.776;2023-03-01T02:56:44;-1.40;99.90
7378;DHT22;3730;50.856;12.776;2023-03-01T02:59:10;-1.50;99.90
7378;DHT22;3730;50.856;12.776;2023-03-01T03:01:36;-1.60;99.90
7378;DHT22;3730;50.856;12.776;2023-03-01T03:04:04;-1.60;99.90
7378;DHT22;3730;50.856;12.776;2023-03-01T03:06:30;-1.60;99.90
7378;DHT22;3730;50.856;12.776;2023-03-01T03:08:55;-1.60;99.90
7378;DHT22;3730;50.856;12.776;2023-03-01T03:11:21;-1.70;99.90
7378;DHT22;3730;50.856;12.776;2023-03-01T03:13:46;-1.80;99.90
7378;DHT22;3730;50.856;12.776;2023-03-01T03:16:14;-1.80;99.90
7378;DHT22;3730;50.856;12.776;2023-03-01T03:18:39;-1.70;99.90
7378;DHT22;3730;50.856;12.776;2023-03-01T03:21:08;-1.60;99.90
7378;DHT22;3730;50.856;12.776;2023-03-01T03:23:35;-1.70;99.90
7378;DHT22;3730;50.856;12.776;2023-03-01T03:26:02;-1.60;99.90
7378;DHT22;3730;50.856;12.776;2023-03-01T03:28:30;-0.70;99.90
7378;DHT22;3730;50.856;12.776;2023-03-01T03:30:58;-1.60;99.90
7378;DHT22;3730;50.856;12.776;2023-03-01T03:33:31;-1.70;99.90
7378;DHT22;3730;50.856;12.776;2023-03-01T03:35:57;-1.80;99.90
7378;DHT22;3730;50.856;12.776;2023-03-01T03:38:23;-1.70;99.90
7378;DHT22;3730;50.856;12.776;2023-03-01T03:40:51;-1.70;99.90
7378;DHT22;3730;50.856;12.776;2023-03-01T03:43:22;-1.80;99.90
7378;DHT22;3730;50.856;12.776;2023-03-01T04:56:58;-1.80;99.90
7378;DHT22;3730;50.856;12.776;2023-03-01T04:59:24;-2.40;99.90
7378;DHT22;3730;50.856;12.776;2023-03-01T05:01:55;-2.50;99.90
7378;DHT22;3730;50.856;12.776;2023-03-01T05:04:24;-2.50;99.90
7378;DHT22;3730;50.856;12.776;2023-03-01T05:06:50;-2.50;99.90
7378;DHT22;3730;50.856;12.776;2023-03-01T05:09:16;-2.50;99.90
7378;DHT22;3730;50.856;12.776;2023-03-01T05:11:42;-2.50;99.90
7378;DHT22;3730;50.856;12.776;2023-03-01T05:14:09;-2.60;99.90
7378;DHT22;3730;50.856;12.776;2023-03-01T05:16:35;-2.50;99.90
7378;DHT22;3730;50.856;12.776;2023-03-01T05:19:01;-2.60;99.90
7378;DHT22;3730;50.856;12.776;2023-03-01T05:21:37;-2.60;99.90
7378;DHT22;3730;50.856;12.776;2023-03-01T05:24:23;-2.60;99.90
7378;DHT22;3730;50.856;12.776;2023-03-01T05:26:50;-2.60;99.90
7378;DHT22;3730;50.856;12.776;2023-03-01T05:29:18;-2.60;99.90
7378;DHT22;3730;50.856;12.776;2023-03-01T05:31:44;-2.60;99.90
7378;DHT22;3730;50.856;12.776;2023-03-01T05:34:10;-2.60;99.90
7378;DHT22;3730;50.856;12.776;2023-03-01T05:36:38;-2.60;99.90
7378;DHT22;3730;50.856;12.776;2023-03-01T05:39:03;-2.60;99.90
7378;DHT22;3730;50.856;12.776;2023-03-01T05:41:29;-2.50;99.90
7378;DHT22;3730;50.856;12.776;2023-03-01T05:43:55;-2.60;99.90
7378;DHT22;3730;50.856;12.776;2023-03-01T05:46:21;-2.70;99.90
7378;DHT22;3730;50.856;12.776;2023-03-01T05:48:48;-2.60;99.90
7378;DHT22;3730;50.856;12.776;2023-03-01T05:51:14;-2.60;99.90
7378;DHT22;3730;50.856;12.776;2023-03-01T05:53:39;-2.70;99.90
7378;DHT22;3730;50.856;12.776;2023-03-01T05:56:05;-2.60;99.90
7378;DHT22;3730;50.856;12.776;2023-03-01T05:58:31;-2.60;99.90
7378;DHT22;3730;50.856;12.776;2023-03-01T06:00:57;-2.70;99.90
7378;DHT22;3730;50.856;12.776;2023-03-01T06:03:23;-2.70;99.90
7378;DHT22;3730;50.856;12.776;2023-03-01T06:05:48;-2.70;99.90
7378;DHT22;3730;50.856;12.776;2023-03-01T06:08:14;-2.70;99.90
7378;DHT22;3730;50.856;12.776;2023-03-01T06:10:40;-2.70;99.90
7378;DHT22;3730;50.856;12.776;2023-03-01T06:15:32;-2.80;99.90
7378;DHT22;3730;50.856;12.776;2023-03-01T06:17:58;-2.80;99.90
7378;DHT22;3730;50.856;12.776;2023-03-01T06:20:25;-2.80;99.90
7378;DHT22;3730;50.856;12.776;2023-03-01T06:22:52;-2.80;99.90
7378;DHT22;3730;50.856;12.776;2023-03-01T06:25:20;-2.80;99.90
7378;DHT22;3730;50.856;12.776;2023-03-01T06:27:47;-2.80;99.90
7378;DHT22;3730;50.856;12.776;2023-03-01T06:30:16;-2.70;99.90
7378;DHT22;3730;50.856;12.776;2023-03-01T06:32:42;-2.40;99.90
7378;DHT22;3730;50.856;12.776;2023-03-01T06:35:10;-2.50;99.90
7378;DHT22;3730;50.856;12.776;2023-03-01T06:37:36;-2.50;99.90
7378;DHT22;3730;50.856;12.776;2023-03-01T06:40:06;-2.40;99.90
7378;DHT22;3730;50.856;12.776;2023-03-01T06:42:37;-2.30;99.90
7378;DHT22;3730;50.856;12.776;2023-03-01T06:45:04;-2.20;99.90
7378;DHT22;3730;50.856;12.776;2023-03-01T06:47:30;-2.20;99.90
7378;DHT22;3730;50.856;12.776;2023-03-01T06:49:55;-2.10;99.90
7378;DHT22;3730;50.856;12.776;2023-03-01T06:52:21;-2.20;99.90
7378;DHT22;3730;50.856;12.776;2023-03-01T06:54:47;-2.10;99.90
7378;DHT22;3730;50.856;12.776;2023-03-01T06:57:12;-2.10;99.90
7378;DHT22;3730;50.856;12.776;2023-03-01T06:59:38;-1.90;99.90
7378;DHT22;3730;50.856;12.776;2023-03-01T07:02:03;-2.00;99.90
7378;DHT22;3730;50.856;12.776;2023-03-01T07:04:29;-2.00;99.90
7378;DHT22;3730;50.856;12.776;2023-03-01T07:06:55;-2.10;99.90
7378;DHT22;3730;50.856;12.776;2023-03-01T07:09:23;-1.90;99.90
7378;DHT22;3730;50.856;12.776;2023-03-01T07:11:49;-2.00;99.90
7378;DHT22;3730;50.856;12.776;2023-03-01T07:14:15;-1.90;99.90
7378;DHT22;3730;50.856;12.776;2023-03-01T07:16:41;-1.80;99.90
7378;DHT22;3730;50.856;12.776;2023-03-01T07:19:06;-1.70;99.90
7378;DHT22;3730;50.856;12.776;2023-03-01T07:21:32;-1.70;99.90
7378;DHT22;3730;50.856;12.776;2023-03-01T07:23:58;-1.70;99.90
7378;DHT22;3730;50.856;12.776;2023-03-01T07:26:23;-1.70;99.90
7378;DHT22;3730;50.856;12.776;2023-03-01T07:28:49;-1.60;99.90
7378;DHT22;3730;50.856;12.776;2023-03-01T07:31:15;-1.60;99.90
7378;DHT22;3730;50.856;12.776;2023-03-01T07:33:40;-1.60;99.90
7378;DHT22;3730;50.856;12.776;2023-03-01T07:36:06;-1.50;99.90
7378;DHT22;3730;50.856;12.776;2023-03-01T07:38:32;-1.50;99.90
7378;DHT22;3730;50.856;12.776;2023-03-01T07:40:59;-1.50;99.90
7378;DHT22;3730;50.856;12.776;2023-03-01T07:43:26;-1.40;99.90
7378;DHT22;3730;50.856;12.776;2023-03-01T07:45:51;-1.20;99.90
7378;DHT22;3730;50.856;12.776;2023-03-01T07:48:17;-1.40;99.90
7378;DHT22;3730;50.856;12.776;2023-03-01T07:50:42;-1.40;99.90
7378;DHT22;3730;50.856;12.776;2023-03-01T07:53:09;-1.30;99.90
7378;DHT22;3730;50.856;12.776;2023-03-01T07:55:35;-1.30;99.90
7378;DHT22;3730;50.856;12.776;2023-03-01T07:58:01;-1.20;99.90
7378;DHT22;3730;50.856;12.776;2023-03-01T08:00:26;-1.20;99.90
7378;DHT22;3730;50.856;12.776;2023-03-01T08:02:52;-1.20;99.90
7378;DHT22;3730;50.856;12.776;2023-03-01T08:05:18;-1.20;99.90
7378;DHT22;3730;50.856;12.776;2023-03-01T08:07:43;-1.10;99.90
7378;DHT22;3730;50.856;12.776;2023-03-01T08:10:10;-1.00;99.90
7378;DHT22;3730;50.856;12.776;2023-03-01T08:12:36;-1.00;99.90
7378;DHT22;3730;50.856;12.776;2023-03-01T08:15:01;-0.90;99.90
7378;DHT22;3730;50.856;12.776;2023-03-01T08:17:27;0.20;99.90
7378;DHT22;3730;50.856;12.776;2023-03-01T08:19:52;0.10;99.90
7378;DHT22;3730;50.856;12.776;2023-03-01T08:22:18;-0.70;99.90
7378;DHT22;3730;50.856;12.776;2023-03-01T08:24:44;-0.70;99.90
7378;DHT22;3730;50.856;12.776;2023-03-01T09:28:19;0.40;99.90
7378;DHT22;3730;50.856;12.776;2023-03-01T09:30:45;0.80;96.10
7378;DHT22;3730;50.856;12.776;2023-03-01T09:33:10;1.10;95.90
7378;DHT22;3730;50.856;12.776;2023-03-01T09:35:40;0.90;95.20
7378;DHT22;3730;50.856;12.776;2023-03-01T09:38:11;2.20;95.40
7378;DHT22;3730;50.856;12.776;2023-03-01T09:40:42;1.10;93.80
7378;DHT22;3730;50.856;12.776;2023-03-01T09:43:51;1.20;94.00
7378;DHT22;3730;50.856;12.776;2023-03-01T09:46:21;1.20;93.70
7378;DHT22;3730;50.856;12.776;2023-03-01T10:09:22;1.30;94.20
7378;DHT22;3730;50.856;12.776;2023-03-01T10:11:54;1.70;89.50
7378;DHT22;3730;50.856;12.776;2023-03-01T10:14:48;1.80;89.10
7378;DHT22;3730;50.856;12.776;2023-03-01T10:17:39;1.90;89.40
7378;DHT22;3730;50.856;12.776;2023-03-01T10:20:18;2.20;85.70
7378;DHT22;3730;50.856;12.776;2023-03-01T10:22:44;1.90;84.30
7378;DHT22;3730;50.856;12.776;2023-03-01T10:25:19;1.80;84.20
7378;DHT22;3730;50.856;12.776;2023-03-01T11:28:42;2.50;86.30
7378;DHT22;3730;50.856;12.776;2023-03-01T11:31:13;3.50;73.70
7378;DHT22;3730;50.856;12.776;2023-03-01T11:33:59;4.30;71.50
7378;DHT22;3730;50.856;12.776;2023-03-01T11:36:49;3.80;75.00
7378;DHT22;3730;50.856;12.776;2023-03-01T11:39:28;3.80;68.40
7378;DHT22;3730;50.856;12.776;2023-03-01T11:42:18;3.80;66.70
7378;DHT22;3730;50.856;12.776;2023-03-01T11:44:48;3.90;62.60
7378;DHT22;3730;50.856;12.776;2023-03-01T11:49:53;4.00;63.90
7378;DHT22;3730;50.856;12.776;2023-03-01T14:39:45;6.30;54.40
7378;DHT22;3730;50.856;12.776;2023-03-01T14:42:12;5.30;38.20
7378;DHT22;3730;50.856;12.776;2023-03-01T14:44:44;5.40;39.50
7378;DHT22;3730;50.856;12.776;2023-03-01T14:47:43;5.20;39.50
7378;DHT22;3730;50.856;12.776;2023-03-01T15:35:49;4.50;40.70
7378;DHT22;3730;50.856;12.776;2023-03-01T15:38:36;4.50;42.10
7378;DHT22;3730;50.856;12.776;2023-03-01T15:43:57;4.30;41.00
7378;DHT22;3730;50.856;12.776;2023-03-01T15:46:27;4.80;41.30
7378;DHT22;3730;50.856;12.776;2023-03-01T15:48:56;4.30;41.30
7378;DHT22;3730;50.856;12.776;2023-03-01T15:51:34;4.20;42.60
7378;DHT22;3730;50.856;12.776;2023-03-01T15:54:06;4.30;42.60
7378;DHT22;3730;50.856;12.776;2023-03-01T15:56:35;4.30;42.20
7378;DHT22;3730;50.856;12.776;2023-03-01T15:59:02;4.20;40.90
7378;DHT22;3730;50.856;12.776;2023-03-01T16:01:28;4.10;41.00
7378;DHT22;3730;50.856;12.776;2023-03-01T16:03:54;4.10;41.60
7378;DHT22;3730;50.856;12.776;2023-03-01T16:06:20;4.20;41.90
7378;DHT22;3730;50.856;12.776;2023-03-01T16:08:45;4.30;41.10
7378;DHT22;3730;50.856;12.776;2023-03-01T16:11:19;4.20;41.80
7378;DHT22;3730;50.856;12.776;2023-03-01T16:13:45;4.10;41.20
7378;DHT22;3730;50.856;12.776;2023-03-01T16:16:12;4.10;40.80
7378;DHT22;3730;50.856;12.776;2023-03-01T16:43:03;4.30;41.50
7378;DHT22;3730;50.856;12.776;2023-03-01T16:45:34;3.70;43.10
7378;DHT22;3730;50.856;12.776;2023-03-01T17:44:11;3.50;52.90
7378;DHT22;3730;50.856;12.776;2023-03-01T17:46:36;3.90;50.30
7378;DHT22;3730;50.856;12.776;2023-03-01T17:49:02;3.10;49.20
7378;DHT22;3730;50.856;12.776;2023-03-01T17:51:28;3.20;49.50
7378;DHT22;3730;50.856;12.776;2023-03-01T17:53:54;3.20;49.30
7378;DHT22;3730;50.856;12.776;2023-03-01T17:56:19;3.10;48.70
7378;DHT22;3730;50.856;12.776;2023-03-01T17:58:45;3.10;48.70
7378;DHT22;3730;50.856;12.776;2023-03-01T18:01:18;3.10;49.20
7378;DHT22;3730;50.856;12.776;2023-03-01T18:03:44;3.10;49.40
7378;DHT22;3730;50.856;12.776;2023-03-01T18:23:22;3.40;50.50
7378;DHT22;3730;50.856;12.776;2023-03-01T20:27:52;2.20;73.50
7378;DHT22;3730;50.856;12.776;2023-03-01T20:30:17;1.70;68.10
7378;DHT22;3730;50.856;12.776;2023-03-01T20:32:43;2.10;69.10
7378;DHT22;3730;50.856;12.776;2023-03-01T20:35:10;1.70;68.90
7378;DHT22;3730;50.856;12.776;2023-03-01T20:37:36;1.60;69.70
7378;DHT22;3730;50.856;12.776;2023-03-01T20:40:03;1.60;69.80
7378;DHT22;3730;50.856;12.776;2023-03-01T20:42:28;1.70;70.30
7378;DHT22;3730;50.856;12.776;2023-03-01T20:44:54;1.80;70.40
7378;DHT22;3730;50.856;12.776;2023-03-01T20:47:20;1.80;70.50
7378;DHT22;3730;50.856;12.776;2023-03-01T20:49:49;2.50;72.10
7378;DHT22;3730;50.856;12.776;2023-03-01T20:52:15;2.40;72.10
7378;DHT22;3730;50.856;12.776;2023-03-01T20:54:40;1.60;72.10
7378;DHT22;3730;50.856;12.776;2023-03-01T20:57:06;1.80;72.10
7378;DHT22;3730;50.856;12.776;2023-03-01T20:59:32;1.60;72.40
7378;DHT22;3730;50.856;12.776;2023-03-01T21:01:59;1.70;72.60
7378;DHT22;3730;50.856;12.776;2023-03-01T21:04:24;1.70;74.20
7378;DHT22;3730;50.856;12.776;2023-03-01T21:06:50;1.90;73.90
7378;DHT22;3730;50.856;12.776;2023-03-01T21:09:16;2.10;73.70
7378;DHT22;3730;50.856;12.776;2023-03-01T21:11:42;1.60;82.30
7378;DHT22;3730;50.856;12.776;2023-03-01T21:14:08;1.70;74.80
7378;DHT22;3730;50.856;12.776;2023-03-01T21:16:34;1.40;75.70
7378;DHT22;3730;50.856;12.776;2023-03-01T21:18:59;1.50;76.90
7378;DHT22;3730;50.856;12.776;2023-03-01T21:23:53;1.40;78.30
7378;DHT22;3730;50.856;12.776;2023-03-01T21:26:21;1.20;79.20
7378;DHT22;3730;50.856;12.776;2023-03-01T21:28:48;1.30;79.20
7378;DHT22;3730;50.856;12.776;2023-03-01T21:31:23;1.30;79.00
7378;DHT22;3730;50.856;12.776;2023-03-01T21:33:54;1.30;79.50
7378;DHT22;3730;50.856;12.776;2023-03-01T21:36:21;1.20;90.40
7378;DHT22;3730;50.856;12.776;2023-03-01T21:38:47;1.10;83.40
7378;DHT22;3730;50.856;12.776;2023-03-01T21:41:16;2.30;84.30
7378;DHT22;3730;50.856;12.776;2023-03-01T21:43:44;1.20;83.50
7378;DHT22;3730;50.856;12.776;2023-03-01T21:46:12;1.20;83.20
7378;DHT22;3730;50.856;12.776;2023-03-01T21:48:40;1.20;83.80
7378;DHT22;3730;50.856;12.776;2023-03-01T21:51:06;1.00;84.50
7378;DHT22;3730;50.856;12.776;2023-03-01T21:53:33;1.00;85.30
7378;DHT22;3730;50.856;12.776;2023-03-01T21:56:00;1.00;85.40
7378;DHT22;3730;50.856;12.776;2023-03-01T21:58:27;1.90;85.40
7378;DHT22;3730;50.856;12.776;2023-03-01T22:00:54;1.20;84.00
7378;DHT22;3730;50.856;12.776;2023-03-01T22:03:21;1.10;83.40
7378;DHT22;3730;50.856;12.776;2023-03-01T22:05:57;1.10;83.40
7378;DHT22;3730;50.856;12.776;2023-03-01T22:08:23;1.20;84.80
7378;DHT22;3730;50.856;12.776;2023-03-01T22:10:49;1.20;85.00
7378;DHT22;3730;50.856;12.776;2023-03-01T22:13:15;1.00;86.60
7378;DHT22;3730;50.856;12.776;2023-03-01T22:15:41;0.90;87.20
7378;DHT22;3730;50.856;12.776;2023-03-01T22:18:08;0.90;87.90
7378;DHT22;3730;50.856;12.776;2023-03-01T22:20:34;0.90;88.30
7378;DHT22;3730;50.856;12.776;2023-03-01T22:23:00;0.90;88.50
7378;DHT22;3730;50.856;12.776;2023-03-01T22:25:26;0.90;89.10
7378;DHT22;3730;50.856;12.776;2023-03-01T22:27:52;1.00;89.20
7378;DHT22;3730;50.856;12.776;2023-03-01T22:30:17;1.50;89.50
7378;DHT22;3730;50.856;12.776;2023-03-01T22:32:43;1.10;88.50
7378;DHT22;3730;50.856;12.776;2023-03-01T22:35:10;1.20;86.80
7378;DHT22;3730;50.856;12.776;2023-03-01T22:37:36;1.20;87.40
7378;DHT22;3730;50.856;12.776;2023-03-01T22:40:03;1.10;87.10
7378;DHT22;3730;50.856;12.776;2023-03-01T22:42:29;1.20;86.40
7378;DHT22;3730;50.856;12.776;2023-03-01T22:44:54;1.20;85.80
7378;DHT22;3730;50.856;12.776;2023-03-01T22:47:20;1.30;84.80
7378;DHT22;3730;50.856;12.776;2023-03-01T22:49:46;1.20;82.90
7378;DHT22;3730;50.856;12.776;2023-03-01T22:52:11;1.20;81.90
7378;DHT22;3730;50.856;12.776;2023-03-01T22:54:37;1.30;79.60
7378;DHT22;3730;50.856;12.776;2023-03-01T22:57:02;1.30;78.00
7378;DHT22;3730;50.856;12.776;2023-03-01T22:59:28;2.50;79.20
7378;DHT22;3730;50.856;12.776;2023-03-01T23:01:54;1.30;77.60
7378;DHT22;3730;50.856;12.776;2023-03-01T23:04:20;1.30;76.80
7378;DHT22;3730;50.856;12.776;2023-03-01T23:06:46;1.80;76.70
7378;DHT22;3730;50.856;12.776;2023-03-01T23:09:25;1.20;75.90
7378;DHT22;3730;50.856;12.776;2023-03-01T23:11:51;1.20;77.30
7378;DHT22;3730;50.856;12.776;2023-03-01T23:14:17;1.00;77.40
7378;DHT22;3730;50.856;12.776;2023-03-01T23:16:43;1.10;78.60
7378;DHT22;3730;50.856;12.776;2023-03-01T23:19:09;1.10;79.30
7378;DHT22;3730;50.856;12.776;2023-03-01T23:21:35;0.90;81.00
7378;DHT22;3730;50.856;12.776;2023-03-01T23:24:01;1.70;84.20
7378;DHT22;3730;50.856;12.776;2023-03-01T23:26:27;0.80;84.60
7378;DHT22;3730;50.856;12.776;2023-03-01T23:28:55;0.70;84.80
7378;DHT22;3730;50.856;12.776;2023-03-01T23:31:20;0.70;85.40
7378;DHT22;3730;50.856;12.776;2023-03-01T23:33:46;0.70;85.30
7378;DHT22;3730;50.856;12.776;2023-03-01T23:36:25;0.80;91.50
7378;DHT22;3730;50.856;12.776;2023-03-01T23:43:47;0.70;85.60
7378;DHT22;3730;50.856;12.776;2023-03-01T23:46:14;0.50;87.00
7378;DHT22;3730;50.856;12.776;2023-03-01T23:48:41;0.60;86.90
7378;DHT22;3730;50.856;12.776;2023-03-01T23:51:07;0.60;86.30
7378;DHT22;3730;50.856;12.776;2023-03-01T23:53:38;0.50;86.20
7378;DHT22;3730;50.856;12.776;2023-03-01T23:56:04;1.20;87.00
7378;DHT22;3730;50.856;12.776;2023-03-01T23:58:30;0.50;84.90
